sensor_id;sensor_type;location;lat;lon;timestamp;pressure;altitude;pressure_sealevel;temperature;humidity
68476;BME280;55464;48.266;14.188;2023-05-03T00:02:08;98433.09;;;12.13;77.51
68476;BME280;55464;48.266;14.188;2023-05-03T00:04:35;98416.88;;;12.11;77.68
68476;BME280;55464;48.266;14.188;2023-05-03T00:07:00;98409.03;;;12.13;77.64
68476;BME280;55464;48.266;14.188;2023-05-03T00:09:26;98406.03;;;12.06;77.47
68476;BME280;55464;48.266;14.188;2023-05-03T00:11:51;98414.81;;;12.08;77.09
68476;BME280;55464;48.266;14.188;2023-05-03T00:14:18;98414.44;;;12.09;77.83
68476;BME280;55464;48.266;14.188;2023-05-03T00:16:43;98420.34;;;12.08;78.06
68476;BME280;55464;48.266;14.188;2023-05-03T00:19:08;98407.97;;;12.05;77.95
68476;BME280;55464;48.266;14.188;2023-05-03T00:21:34;98407.66;;;12.07;nan
68476;BME280;55464;48.266;14.188;2023-05-03T00:24:00;98406.38;;;12.04;78.21
68476;BME280;55464;48.266;14.188;2023-05-03T00:26:26;98408.44;;;12.07;78.42
68476;BME280;55464;48.266;14.188;2023-05-03T00:28:52;98405.00;;;12.10;77.95
68476;BME280;55464;48.266;14.188;2023-05-03T00:31:18;98404.09;;;12.06;78.03
68476;BME280;55464;48.266;14.188;2023-05-03T00:33:43;98400.88;;;12.04;78.17
68476;BME280;55464;48.266;14.188;2023-05-03T00:36:13;98400.88;;;12.04;78.19
68476;BME280;55464;48.266;14.188;2023-05-03T00:38:40;98403.25;;;12.06;78.46
68476;BME280;55464;48.266;14.188;2023-05-03T00:41:08;98394.97;;;12.06;78.09
68476;BME280;55464;48.266;14.188;2023-05-03T00:43:34;98401.31;;;12.06;78.32
68476;BME280;55464;48.266;14.188;2023-05-03T00:46:00;98396.59;;;12.07;78.22
68476;BME280;55464;48.266;14.188;2023-05-03T00:48:27;98400.50;;;12.06;78.34
68476;BME280;55464;48.266;14.188;2023-05-03T00:50:54;98394.25;;;11.97;78.38
68476;BME280;55464;48.266;14.188;2023-05-03T00:53:21;98400.88;;;12.04;78.20
68476;BME280;55464;48.266;14.188;2023-05-03T00:55:47;98388.84;;;12.00;78.59
68476;BME280;55464;48.266;14.188;2023-05-03T00:58:14;98398.44;;;12.03;78.21
68476;BME280;55464;48.266;14.188;2023-05-03T01:00:40;98398.78;;;12.01;78.28
68476;BME280;55464;48.266;14.188;2023-05-03T01:03:06;98405.56;;;12.04;78.14
68476;BME280;55464;48.266;14.188;2023-05-03T01:05:40;98401.19;;;12.03;78.01
68476;BME280;55464;48.266;14.188;2023-05-03T01:08:14;98399.22;;;12.03;78.15
68476;BME280;55464;48.266;14.188;2023-05-03T01:11:05;98395.66;;;12.03;78.00
68476;BME280;55464;48.266;14.188;2023-05-03T01:13:59;98409.81;;;12.01;77.30
68476;BME280;55464;48.266;14.188;2023-05-03T01:16:39;98400.03;;;12.04;78.08
68476;BME280;55464;48.266;14.188;2023-05-03T01:24:35;98386.81;;;11.88;78.53
68476;BME280;55464;48.266;14.188;2023-05-03T01:27:03;98398.19;;;11.96;78.57
68476;BME280;55464;48.266;14.188;2023-05-03T01:29:29;98396.13;;;11.84;78.69
68476;BME280;55464;48.266;14.188;2023-05-03T01:31:59;98395.47;;;11.87;78.76
68476;BME280;55464;48.266;14.188;2023-05-03T01:37:45;98387.84;;;11.84;78.68
68476;BME280;55464;48.266;14.188;2023-05-03T01:40:12;98393.84;;;11.86;79.02
68476;BME280;55464;48.266;14.188;2023-05-03T01:42:41;98397.59;;;11.81;79.30
68476;BME280;55464;48.266;14.188;2023-05-03T01:45:07;98388.84;;;11.79;78.54
68476;BME280;55464;48.266;14.188;2023-05-03T01:47:32;98391.53;;;11.88;79.08
68476;BME280;55464;48.266;14.188;2023-05-03T01:49:58;98397.13;;;11.79;79.43
68476;BME280;55464;48.266;14.188;2023-05-03T01:52:23;98394.03;;;11.81;79.21
68476;BME280;55464;48.266;14.188;2023-05-03T01:54:49;98392.91;;;11.82;79.51
68476;BME280;55464;48.266;14.188;2023-05-03T01:57:14;98393.22;;;11.80;79.33
68476;BME280;55464;48.266;14.188;2023-05-03T01:59:40;98398.44;;;11.82;79.66
68476;BME280;55464;48.266;14.188;2023-05-03T02:02:05;98399.28;;;11.73;79.68
68476;BME280;55464;48.266;14.188;2023-05-03T02:04:30;98389.72;;;11.71;79.96
68476;BME280;55464;48.266;14.188;2023-05-03T02:06:56;98402.19;;;11.77;79.89
68476;BME280;55464;48.266;14.188;2023-05-03T02:09:21;98409.81;;;11.80;79.77
68476;BME280;55464;48.266;14.188;2023-05-03T02:11:47;98394.44;;;11.70;80.04
68476;BME280;55464;48.266;14.188;2023-05-03T02:14:12;98399.69;;;11.84;79.55
68476;BME280;55464;48.266;14.188;2023-05-03T02:16:38;98402.31;;;11.81;79.57
68476;BME280;55464;48.266;14.188;2023-05-03T02:19:04;98396.78;;;11.81;79.48
68476;BME280;55464;48.266;14.188;2023-05-03T02:21:29;98394.56;;;11.74;79.91
68476;BME280;55464;48.266;14.188;2023-05-03T02:23:55;98406.22;;;11.80;79.67
68476;BME280;55464;48.266;14.188;2023-05-03T02:26:21;98401.19;;;11.82;79.54
68476;BME280;55464;48.266;14.188;2023-05-03T02:28:46;98394.84;;;11.81;79.41
68476;BME280;55464;48.266;14.188;2023-05-03T02:31:11;98385.94;;;11.76;79.47
68476;BME280;55464;48.266;14.188;2023-05-03T02:33:40;98400.84;;;11.83;79.30
68476;BME280;55464;48.266;14.188;2023-05-03T02:36:06;98391.47;;;11.76;79.66
68476;BME280;55464;48.266;14.188;2023-05-03T02:38:31;98387.78;;;11.71;80.04
68476;BME280;55464;48.266;14.188;2023-05-03T02:40:57;98392.28;;;11.76;79.97
68476;BME280;55464;48.266;14.188;2023-05-03T02:43:23;98396.34;;;11.79;79.91
68476;BME280;55464;48.266;14.188;2023-05-03T02:45:49;98402.53;;;11.76;79.86
68476;BME280;55464;48.266;14.188;2023-05-03T02:48:14;98399.88;;;11.79;79.81
68476;BME280;55464;48.266;14.188;2023-05-03T02:50:40;98398.16;;;11.75;79.95
68476;BME280;55464;48.266;14.188;2023-05-03T02:53:06;98400.28;;;11.69;80.28
68476;BME280;55464;48.266;14.188;2023-05-03T02:55:32;98404.34;;;11.71;80.09
68476;BME280;55464;48.266;14.188;2023-05-03T02:57:57;98404.34;;;11.71;80.24
68476;BME280;55464;48.266;14.188;2023-05-03T03:00:23;98406.78;;;11.73;80.00
68476;BME280;55464;48.266;14.188;2023-05-03T03:02:48;98402.66;;;11.58;80.26
68476;BME280;55464;48.266;14.188;2023-05-03T03:05:14;98411.06;;;11.62;80.29
68476;BME280;55464;48.266;14.188;2023-05-03T03:07:40;98398.28;;;11.57;80.32
68476;BME280;55464;48.266;14.188;2023-05-03T03:10:06;98413.63;;;11.67;80.51
68476;BME280;55464;48.266;14.188;2023-05-03T03:12:34;98398.69;;;11.47;80.23
68476;BME280;55464;48.266;14.188;2023-05-03T03:14:59;98405.47;;;11.49;80.42
68476;BME280;55464;48.266;14.188;2023-05-03T03:17:25;98413.09;;;11.52;80.43
68476;BME280;55464;48.266;14.188;2023-05-03T03:19:50;98411.72;;;11.59;80.71
68476;BME280;55464;48.266;14.188;2023-05-03T03:22:16;98404.94;;;11.56;80.27
68476;BME280;55464;48.266;14.188;2023-05-03T03:24:41;98419.81;;;11.64;79.98
68476;BME280;55464;48.266;14.188;2023-05-03T03:27:07;98416.13;;;11.60;79.89
68476;BME280;55464;48.266;14.188;2023-05-03T03:29:33;98416.59;;;11.62;79.98
68476;BME280;55464;48.266;14.188;2023-05-03T03:31:59;98423.13;;;11.57;80.07
68476;BME280;55464;48.266;14.188;2023-05-03T03:34:25;98403.31;;;11.55;79.97
68476;BME280;55464;48.266;14.188;2023-05-03T03:36:50;98417.94;;;11.56;80.07
68476;BME280;55464;48.266;14.188;2023-05-03T03:39:16;98415.94;;;11.65;79.63
68476;BME280;55464;48.266;14.188;2023-05-03T03:41:41;98403.44;;;11.59;79.50
68476;BME280;55464;48.266;14.188;2023-05-03T03:44:07;98414.16;;;11.60;78.84
68476;BME280;55464;48.266;14.188;2023-05-03T03:46:33;98426.03;;;11.61;79.21
68476;BME280;55464;48.266;14.188;2023-05-03T03:48:58;98418.69;;;11.65;78.86
68476;BME280;55464;48.266;14.188;2023-05-03T03:51:23;98420.78;;;11.68;78.81
68476;BME280;55464;48.266;14.188;2023-05-03T03:53:49;98423.69;;;11.71;78.29
68476;BME280;55464;48.266;14.188;2023-05-03T03:56:14;98423.41;;;11.64;78.92
68476;BME280;55464;48.266;14.188;2023-05-03T03:58:40;98421.19;;;11.58;79.11
68476;BME280;55464;48.266;14.188;2023-05-03T04:01:05;98429.41;;;11.66;78.97
68476;BME280;55464;48.266;14.188;2023-05-03T04:03:30;98423.88;;;11.66;78.76
68476;BME280;55464;48.266;14.188;2023-05-03T04:05:56;98435.38;;;11.68;78.84
68476;BME280;55464;48.266;14.188;2023-05-03T04:08:21;98435.13;;;11.61;79.15
68476;BME280;55464;48.266;14.188;2023-05-03T04:10:47;98439.28;;;11.67;79.19
68476;BME280;55464;48.266;14.188;2023-05-03T04:13:12;98432.34;;;11.61;79.24
68476;BME280;55464;48.266;14.188;2023-05-03T04:15:38;98436.72;;;11.62;78.82
68476;BME280;55464;48.266;14.188;2023-05-03T04:18:03;98434.78;;;11.63;79.24
68476;BME280;55464;48.266;14.188;2023-05-03T04:20:30;98434.13;;;11.66;79.03
68476;BME280;55464;48.266;14.188;2023-05-03T04:22:55;98436.72;;;11.62;79.41
68476;BME280;55464;48.266;14.188;2023-05-03T04:25:21;98434.31;;;11.61;79.50
68476;BME280;55464;48.266;14.188;2023-05-03T04:27:46;98447.56;;;11.67;79.53
68476;BME280;55464;48.266;14.188;2023-05-03T04:30:13;98448.06;;;11.69;79.71
68476;BME280;55464;48.266;14.188;2023-05-03T04:32:39;98447.44;;;11.64;79.70
68476;BME280;55464;48.266;14.188;2023-05-03T04:35:05;98459.63;;;11.63;80.15
68476;BME280;55464;48.266;14.188;2023-05-03T04:37:44;98458.00;;;11.62;79.95
68476;BME280;55464;48.266;14.188;2023-05-03T04:40:10;98450.06;;;11.60;79.72
68476;BME280;55464;48.266;14.188;2023-05-03T04:42:36;98444.25;;;11.53;79.29
68476;BME280;55464;48.266;14.188;2023-05-03T04:45:02;98449.59;;;11.58;78.73
68476;BME280;55464;48.266;14.188;2023-05-03T04:47:28;98441.16;;;11.54;79.41
68476;BME280;55464;48.266;14.188;2023-05-03T04:49:54;98463.38;;;11.58;79.33
68476;BME280;55464;48.266;14.188;2023-05-03T04:52:19;98472.63;;;11.62;79.00
68476;BME280;55464;48.266;14.188;2023-05-03T04:54:44;98462.25;;;11.59;78.82
68476;BME280;55464;48.266;14.188;2023-05-03T04:57:10;98466.94;;;11.59;79.21
68476;BME280;55464;48.266;14.188;2023-05-03T04:59:35;98472.47;;;11.59;79.72
68476;BME280;55464;48.266;14.188;2023-05-03T05:02:01;98470.22;;;11.61;79.85
68476;BME280;55464;48.266;14.188;2023-05-03T05:04:26;98484.28;;;11.68;78.47
68476;BME280;55464;48.266;14.188;2023-05-03T05:06:52;98479.09;;;11.66;78.22
68476;BME280;55464;48.266;14.188;2023-05-03T05:09:26;98477.00;;;11.63;76.91
68476;BME280;55464;48.266;14.188;2023-05-03T05:11:52;98466.28;;;11.62;76.27
68476;BME280;55464;48.266;14.188;2023-05-03T05:14:18;98478.91;;;11.71;75.93
68476;BME280;55464;48.266;14.188;2023-05-03T05:16:44;98484.75;;;11.70;75.51
68476;BME280;55464;48.266;14.188;2023-05-03T05:19:09;98493.66;;;11.76;74.82
68476;BME280;55464;48.266;14.188;2023-05-03T05:21:35;98488.78;;;11.72;74.72
68476;BME280;55464;48.266;14.188;2023-05-03T05:24:00;98493.50;;;11.72;74.98
68476;BME280;55464;48.266;14.188;2023-05-03T05:26:26;98493.38;;;11.68;74.71
68476;BME280;55464;48.266;14.188;2023-05-03T05:28:52;98492.72;;;11.71;75.53
68476;BME280;55464;48.266;14.188;2023-05-03T05:31:17;98498.56;;;11.70;75.17
68476;BME280;55464;48.266;14.188;2023-05-03T05:33:43;98498.72;;;11.73;75.41
68476;BME280;55464;48.266;14.188;2023-05-03T05:36:08;98502.13;;;11.70;76.17
68476;BME280;55464;48.266;14.188;2023-05-03T05:38:34;98506.53;;;11.71;75.01
68476;BME280;55464;48.266;14.188;2023-05-03T05:40:59;98511.22;;;11.71;74.77
68476;BME280;55464;48.266;14.188;2023-05-03T05:43:25;98511.22;;;11.71;75.53
68476;BME280;55464;48.266;14.188;2023-05-03T05:45:50;98507.50;;;11.67;75.15
68476;BME280;55464;48.266;14.188;2023-05-03T05:48:16;98517.91;;;11.70;76.23
68476;BME280;55464;48.266;14.188;2023-05-03T05:50:43;98517.56;;;11.71;76.39
68476;BME280;55464;48.266;14.188;2023-05-03T05:53:09;98513.03;;;11.67;76.89
68476;BME280;55464;48.266;14.188;2023-05-03T05:55:34;98517.25;;;11.73;76.44
68476;BME280;55464;48.266;14.188;2023-05-03T05:58:00;98515.59;;;11.72;75.47
68476;BME280;55464;48.266;14.188;2023-05-03T06:00:25;98517.72;;;11.75;75.49
68476;BME280;55464;48.266;14.188;2023-05-03T06:02:51;98513.19;;;11.70;73.88
68476;BME280;55464;48.266;14.188;2023-05-03T06:05:16;98500.53;;;11.69;73.43
68476;BME280;55464;48.266;14.188;2023-05-03T06:07:42;98508.63;;;11.75;73.84
68476;BME280;55464;48.266;14.188;2023-05-03T06:10:08;98513.25;;;11.83;73.91
68476;BME280;55464;48.266;14.188;2023-05-03T06:12:33;98522.00;;;11.85;72.34
68476;BME280;55464;48.266;14.188;2023-05-03T06:14:59;98505.44;;;11.85;71.52
68476;BME280;55464;48.266;14.188;2023-05-03T06:17:24;98519.38;;;11.88;71.27
68476;BME280;55464;48.266;14.188;2023-05-03T06:19:51;98515.50;;;11.89;73.74
68476;BME280;55464;48.266;14.188;2023-05-03T06:22:16;98513.88;;;11.88;73.61
68476;BME280;55464;48.266;14.188;2023-05-03T06:24:42;98519.56;;;11.92;72.78
68476;BME280;55464;48.266;14.188;2023-05-03T06:27:07;98522.50;;;11.96;72.91
68476;BME280;55464;48.266;14.188;2023-05-03T06:29:33;98521.66;;;11.95;73.08
68476;BME280;55464;48.266;14.188;2023-05-03T06:31:58;98527.31;;;11.99;75.22
68476;BME280;55464;48.266;14.188;2023-05-03T06:34:24;98538.63;;;12.06;75.36
68476;BME280;55464;48.266;14.188;2023-05-03T06:36:50;98536.00;;;12.09;74.17
68476;BME280;55464;48.266;14.188;2023-05-03T06:39:15;98529.81;;;12.13;74.16
68476;BME280;55464;48.266;14.188;2023-05-03T06:41:41;98526.41;;;12.16;74.14
68476;BME280;55464;48.266;14.188;2023-05-03T06:44:07;98539.53;;;12.19;74.26
68476;BME280;55464;48.266;14.188;2023-05-03T06:46:32;98534.47;;;12.21;74.48
68476;BME280;55464;48.266;14.188;2023-05-03T06:48:58;98528.97;;;12.21;74.53
68476;BME280;55464;48.266;14.188;2023-05-03T06:51:25;98537.19;;;12.29;74.46
68476;BME280;55464;48.266;14.188;2023-05-03T06:53:55;98530.50;;;12.30;74.65
68476;BME280;55464;48.266;14.188;2023-05-03T06:56:22;98541.72;;;12.34;75.42
68476;BME280;55464;48.266;14.188;2023-05-03T06:58:48;98534.88;;;12.32;74.21
68476;BME280;55464;48.266;14.188;2023-05-03T07:01:13;98536.84;;;12.31;74.11
68476;BME280;55464;48.266;14.188;2023-05-03T07:03:39;98543.31;;;12.35;73.83
68476;BME280;55464;48.266;14.188;2023-05-03T07:06:04;98545.75;;;12.37;73.42
68476;BME280;55464;48.266;14.188;2023-05-03T07:08:30;98547.00;;;12.39;73.02
68476;BME280;55464;48.266;14.188;2023-05-03T07:10:55;98551.06;;;12.42;73.73
68476;BME280;55464;48.266;14.188;2023-05-03T07:13:21;98548.75;;;12.44;73.60
68476;BME280;55464;48.266;14.188;2023-05-03T07:15:46;98550.06;;;12.46;73.02
68476;BME280;55464;48.266;14.188;2023-05-03T07:18:12;98551.78;;;12.51;73.04
68476;BME280;55464;48.266;14.188;2023-05-03T07:20:37;98542.03;;;12.54;73.78
68476;BME280;55464;48.266;14.188;2023-05-03T07:23:02;98530.00;;;12.49;72.65
68476;BME280;55464;48.266;14.188;2023-05-03T07:25:28;98535.31;;;12.55;71.70
68476;BME280;55464;48.266;14.188;2023-05-03T07:27:54;98540.53;;;12.56;72.62
68476;BME280;55464;48.266;14.188;2023-05-03T07:30:19;98530.75;;;12.59;72.67
68476;BME280;55464;48.266;14.188;2023-05-03T07:32:46;98538.47;;;12.65;72.09
68476;BME280;55464;48.266;14.188;2023-05-03T07:35:11;98537.13;;;12.72;71.52
68476;BME280;55464;48.266;14.188;2023-05-03T07:37:37;98536.94;;;12.77;70.62
68476;BME280;55464;48.266;14.188;2023-05-03T07:40:04;98535.75;;;12.78;71.56
68476;BME280;55464;48.266;14.188;2023-05-03T07:42:31;98529.88;;;12.79;71.41
68476;BME280;55464;48.266;14.188;2023-05-03T07:44:56;98537.28;;;12.88;70.84
68476;BME280;55464;48.266;14.188;2023-05-03T07:47:22;98530.97;;;12.87;70.52
68476;BME280;55464;48.266;14.188;2023-05-03T07:49:47;98530.63;;;12.89;70.86
68476;BME280;55464;48.266;14.188;2023-05-03T07:52:15;98531.31;;;12.85;71.75
68476;BME280;55464;48.266;14.188;2023-05-03T07:54:40;98532.34;;;12.93;69.92
68476;BME280;55464;48.266;14.188;2023-05-03T07:57:07;98543.06;;;12.95;71.19
68476;BME280;55464;48.266;14.188;2023-05-03T07:59:33;98531.56;;;12.93;70.12
68476;BME280;55464;48.266;14.188;2023-05-03T08:01:58;98545.63;;;13.00;70.69
68476;BME280;55464;48.266;14.188;2023-05-03T08:04:24;98543.31;;;13.02;70.39
68476;BME280;55464;48.266;14.188;2023-05-03T08:06:49;98541.72;;;13.01;69.92
68476;BME280;55464;48.266;14.188;2023-05-03T08:09:15;98539.28;;;12.99;70.26
68476;BME280;55464;48.266;14.188;2023-05-03T08:11:40;98535.47;;;13.04;70.72
68476;BME280;55464;48.266;14.188;2023-05-03T08:14:05;98538.97;;;13.13;70.93
68476;BME280;55464;48.266;14.188;2023-05-03T08:16:31;98535.38;;;13.13;70.58
68476;BME280;55464;48.266;14.188;2023-05-03T08:18:56;98536.09;;;13.10;71.38
68476;BME280;55464;48.266;14.188;2023-05-03T08:21:21;98532.41;;;13.18;71.29
68476;BME280;55464;48.266;14.188;2023-05-03T08:23:49;98527.69;;;13.18;71.42
68476;BME280;55464;48.266;14.188;2023-05-03T08:26:15;98536.69;;;13.28;71.33
68476;BME280;55464;48.266;14.188;2023-05-03T08:28:41;98545.16;;;13.31;70.74
68476;BME280;55464;48.266;14.188;2023-05-03T08:31:07;98544.13;;;13.36;70.82
68476;BME280;55464;48.266;14.188;2023-05-03T08:33:32;98541.34;;;13.36;70.39
68476;BME280;55464;48.266;14.188;2023-05-03T08:35:58;98541.47;;;13.39;70.90
68476;BME280;55464;48.266;14.188;2023-05-03T08:38:23;98542.38;;;13.43;70.81
68476;BME280;55464;48.266;14.188;2023-05-03T08:40:53;98553.25;;;13.49;71.52
68476;BME280;55464;48.266;14.188;2023-05-03T08:43:19;98551.72;;;13.51;69.77
68476;BME280;55464;48.266;14.188;2023-05-03T08:45:46;98550.69;;;13.56;70.23
68476;BME280;55464;48.266;14.188;2023-05-03T08:48:12;98547.47;;;13.54;70.19
68476;BME280;55464;48.266;14.188;2023-05-03T08:50:38;98555.22;;;13.60;69.85
68476;BME280;55464;48.266;14.188;2023-05-03T08:53:09;98542.84;;;13.58;70.47
68476;BME280;55464;48.266;14.188;2023-05-03T08:55:36;98557.38;;;13.67;69.42
68476;BME280;55464;48.266;14.188;2023-05-03T08:58:05;98548.72;;;13.69;69.13
68476;BME280;55464;48.266;14.188;2023-05-03T09:00:34;98550.47;;;13.73;69.21
68476;BME280;55464;48.266;14.188;2023-05-03T09:03:00;98552.06;;;13.74;69.46
68476;BME280;55464;48.266;14.188;2023-05-03T09:05:34;98555.34;;;13.76;68.40
68476;BME280;55464;48.266;14.188;2023-05-03T09:08:10;98561.09;;;13.71;67.49
68476;BME280;55464;48.266;14.188;2023-05-03T09:10:38;98556.47;;;13.75;68.42
68476;BME280;55464;48.266;14.188;2023-05-03T09:13:04;98560.53;;;13.78;68.32
68476;BME280;55464;48.266;14.188;2023-05-03T09:15:30;98559.34;;;13.79;68.25
68476;BME280;55464;48.266;14.188;2023-05-03T09:18:17;98555.56;;;13.84;68.70
68476;BME280;55464;48.266;14.188;2023-05-03T09:20:44;98562.56;;;13.93;69.17
68476;BME280;55464;48.266;14.188;2023-05-03T09:23:36;98552.09;;;13.99;69.66
68476;BME280;55464;48.266;14.188;2023-05-03T09:26:01;98549.97;;;14.08;69.01
68476;BME280;55464;48.266;14.188;2023-05-03T09:28:27;98557.94;;;14.10;66.98
68476;BME280;55464;48.266;14.188;2023-05-03T09:31:05;98548.47;;;14.11;66.20
68476;BME280;55464;48.266;14.188;2023-05-03T09:33:32;98547.91;;;14.05;65.03
68476;BME280;55464;48.266;14.188;2023-05-03T09:36:04;98551.13;;;14.07;65.17
68476;BME280;55464;48.266;14.188;2023-05-03T09:38:31;98542.69;;;14.04;65.78
68476;BME280;55464;48.266;14.188;2023-05-03T09:40:58;98544.47;;;13.96;64.82
68476;BME280;55464;48.266;14.188;2023-05-03T09:43:24;98554.13;;;14.02;65.87
68476;BME280;55464;48.266;14.188;2023-05-03T09:45:49;98555.97;;;14.10;66.47
68476;BME280;55464;48.266;14.188;2023-05-03T09:48:15;98551.13;;;14.07;66.23
68476;BME280;55464;48.266;14.188;2023-05-03T09:50:41;98549.88;;;14.05;65.47
68476;BME280;55464;48.266;14.188;2023-05-03T09:53:07;98538.44;;;14.06;65.24
68476;BME280;55464;48.266;14.188;2023-05-03T09:55:34;98553.88;;;14.19;66.37
68476;BME280;55464;48.266;14.188;2023-05-03T09:58:00;98553.97;;;14.23;65.25
68476;BME280;55464;48.266;14.188;2023-05-03T10:00:35;98540.00;;;14.19;66.08
68476;BME280;55464;48.266;14.188;2023-05-03T10:03:09;98543.25;;;14.22;65.06
68476;BME280;55464;48.266;14.188;2023-05-03T10:05:46;98547.41;;;14.28;66.10
68476;BME280;55464;48.266;14.188;2023-05-03T10:08:33;98547.84;;;14.30;66.79
68476;BME280;55464;48.266;14.188;2023-05-03T10:11:02;98538.84;;;14.33;67.27
68476;BME280;55464;48.266;14.188;2023-05-03T10:13:28;98533.38;;;14.36;66.71
68476;BME280;55464;48.266;14.188;2023-05-03T10:16:16;98536.81;;;14.46;67.12
68476;BME280;55464;48.266;14.188;2023-05-03T10:18:48;98530.94;;;14.47;66.19
68476;BME280;55464;48.266;14.188;2023-05-03T10:21:24;98524.22;;;14.48;65.60
68476;BME280;55464;48.266;14.188;2023-05-03T10:24:13;98537.03;;;14.53;65.44
68476;BME280;55464;48.266;14.188;2023-05-03T10:26:43;98532.09;;;14.59;65.87
68476;BME280;55464;48.266;14.188;2023-05-03T10:32:04;98527.78;;;14.61;65.61
68476;BME280;55464;48.266;14.188;2023-05-03T10:34:32;98532.53;;;14.61;65.47
68476;BME280;55464;48.266;14.188;2023-05-03T10:37:01;98523.59;;;14.67;66.05
68476;BME280;55464;48.266;14.188;2023-05-03T10:39:27;98535.16;;;14.69;65.94
68476;BME280;55464;48.266;14.188;2023-05-03T10:42:00;98523.31;;;14.72;65.75
68476;BME280;55464;48.266;14.188;2023-05-03T10:44:34;98515.72;;;14.69;64.54
68476;BME280;55464;48.266;14.188;2023-05-03T10:47:21;98518.16;;;14.71;64.91
68476;BME280;55464;48.266;14.188;2023-05-03T10:55:12;98522.72;;;14.79;64.64
68476;BME280;55464;48.266;14.188;2023-05-03T10:57:39;98516.47;;;14.82;63.62
68476;BME280;55464;48.266;14.188;2023-05-03T11:00:12;98524.69;;;14.79;63.41
68476;BME280;55464;48.266;14.188;2023-05-03T11:02:45;98532.94;;;14.75;62.63
68476;BME280;55464;48.266;14.188;2023-05-03T11:05:20;98521.81;;;14.75;62.98
68476;BME280;55464;48.266;14.188;2023-05-03T11:07:47;98521.81;;;14.75;63.96
68476;BME280;55464;48.266;14.188;2023-05-03T11:10:17;98517.88;;;14.76;64.62
68476;BME280;55464;48.266;14.188;2023-05-03T11:12:43;98511.69;;;14.67;62.70
68476;BME280;55464;48.266;14.188;2023-05-03T11:15:09;98520.66;;;14.76;63.36
68476;BME280;55464;48.266;14.188;2023-05-03T11:17:37;98512.44;;;14.80;63.90
68476;BME280;55464;48.266;14.188;2023-05-03T11:20:06;98515.22;;;14.80;63.20
68476;BME280;55464;48.266;14.188;2023-05-03T11:22:35;98505.28;;;14.79;63.32
68476;BME280;55464;48.266;14.188;2023-05-03T11:25:01;98509.88;;;14.87;63.51
68476;BME280;55464;48.266;14.188;2023-05-03T11:27:26;98500.91;;;14.93;64.54
68476;BME280;55464;48.266;14.188;2023-05-03T11:29:53;98498.69;;;14.99;63.75
68476;BME280;55464;48.266;14.188;2023-05-03T11:32:26;98504.69;;;15.17;64.86
68476;BME280;55464;48.266;14.188;2023-05-03T11:34:51;98509.91;;;15.19;64.12
68476;BME280;55464;48.266;14.188;2023-05-03T11:37:17;98503.06;;;15.32;64.76
68476;BME280;55464;48.266;14.188;2023-05-03T11:39:42;98490.81;;;15.33;64.98
68476;BME280;55464;48.266;14.188;2023-05-03T11:42:08;98493.50;;;15.45;65.40
68476;BME280;55464;48.266;14.188;2023-05-03T11:44:33;98506.13;;;15.59;64.53
68476;BME280;55464;48.266;14.188;2023-05-03T11:46:59;98500.84;;;15.54;63.74
68476;BME280;55464;48.266;14.188;2023-05-03T11:49:24;98491.41;;;15.58;62.36
68476;BME280;55464;48.266;14.188;2023-05-03T11:51:50;98486.75;;;15.62;62.91
68476;BME280;55464;48.266;14.188;2023-05-03T11:54:16;98492.22;;;15.75;63.70
68476;BME280;55464;48.266;14.188;2023-05-03T11:56:42;98496.50;;;15.88;62.45
68476;BME280;55464;48.266;14.188;2023-05-03T11:59:07;98489.13;;;15.96;61.19
68476;BME280;55464;48.266;14.188;2023-05-03T12:01:33;98489.00;;;16.08;63.33
68476;BME280;55464;48.266;14.188;2023-05-03T12:04:00;98488.72;;;16.13;57.92
68476;BME280;55464;48.266;14.188;2023-05-03T12:06:30;98486.72;;;16.14;57.45
68476;BME280;55464;48.266;14.188;2023-05-03T12:08:57;98480.44;;;16.17;60.48
68476;BME280;55464;48.266;14.188;2023-05-03T12:11:22;98469.53;;;16.28;61.79
68476;BME280;55464;48.266;14.188;2023-05-03T12:13:56;98477.75;;;16.40;60.97
68476;BME280;55464;48.266;14.188;2023-05-03T12:16:23;98471.44;;;16.43;58.62
68476;BME280;55464;48.266;14.188;2023-05-03T12:18:51;98469.25;;;16.52;60.31
68476;BME280;55464;48.266;14.188;2023-05-03T12:21:20;98468.66;;;16.62;61.59
68476;BME280;55464;48.266;14.188;2023-05-03T12:23:46;98479.13;;;16.69;61.35
68476;BME280;55464;48.266;14.188;2023-05-03T12:26:15;98470.63;;;16.62;59.84
68476;BME280;55464;48.266;14.188;2023-05-03T12:28:41;98470.84;;;16.73;58.92
68476;BME280;55464;48.266;14.188;2023-05-03T12:31:06;98469.34;;;16.79;59.89
68476;BME280;55464;48.266;14.188;2023-05-03T12:33:32;98465.81;;;16.82;61.29
68476;BME280;55464;48.266;14.188;2023-05-03T12:35:58;98454.06;;;16.69;59.02
68476;BME280;55464;48.266;14.188;2023-05-03T12:38:23;98459.63;;;16.89;59.97
68476;BME280;55464;48.266;14.188;2023-05-03T12:40:49;98459.06;;;17.03;58.33
68476;BME280;55464;48.266;14.188;2023-05-03T12:43:15;98450.09;;;17.13;57.36
68476;BME280;55464;48.266;14.188;2023-05-03T12:45:40;98442.03;;;17.31;59.10
68476;BME280;55464;48.266;14.188;2023-05-03T12:48:06;98445.47;;;17.47;57.32
68476;BME280;55464;48.266;14.188;2023-05-03T12:50:31;98433.72;;;17.61;57.87
68476;BME280;55464;48.266;14.188;2023-05-03T12:52:57;98442.88;;;17.62;57.83
68476;BME280;55464;48.266;14.188;2023-05-03T12:55:22;98430.78;;;17.50;57.29
68476;BME280;55464;48.266;14.188;2023-05-03T12:57:48;98430.25;;;17.41;57.22
68476;BME280;55464;48.266;14.188;2023-05-03T13:00:13;98429.22;;;17.26;57.24
68476;BME280;55464;48.266;14.188;2023-05-03T13:02:40;98433.31;;;17.09;56.50
68476;BME280;55464;48.266;14.188;2023-05-03T13:05:06;98438.69;;;16.98;56.19
68476;BME280;55464;48.266;14.188;2023-05-03T13:07:32;98443.34;;;16.91;57.19